sensor_id;sensor_type;location;lat;lon;timestamp;temperature;humidity
51825;DHT22;37879;52.986;6.282;2022-11-02T00:01:22;12.00;99.90
51825;DHT22;37879;52.986;6.282;2022-11-02T00:03:48;12.00;99.90
51825;DHT22;37879;52.986;6.282;2022-11-02T00:06:14;11.90;99.90
51825;DHT22;37879;52.986;6.282;2022-11-02T00:08:40;11.90;99.90
51825;DHT22;37879;52.986;6.282;2022-11-02T00:11:06;11.80;99.90
51825;DHT22;37879;52.986;6.282;2022-11-02T00:13:31;11.80;99.90
51825;DHT22;37879;52.986;6.282;2022-11-02T00:16:01;11.70;99.90
51825;DHT22;37879;52.986;6.282;2022-11-02T00:18:27;11.70;99.90
51825;DHT22;37879;52.986;6.282;2022-11-02T00:20:54;11.60;99.90
51825;DHT22;37879;52.986;6.282;2022-11-02T00:23:21;11.60;99.90
51825;DHT22;37879;52.986;6.282;2022-11-02T00:25:49;11.50;99.90
51825;DHT22;37879;52.986;6.282;2022-11-02T00:28:15;11.50;99.90
51825;DHT22;37879;52.986;6.282;2022-11-02T00:30:41;11.40;99.90
51825;DHT22;37879;52.986;6.282;2022-11-02T00:33:07;11.40;99.90
51825;DHT22;37879;52.986;6.282;2022-11-02T00:35:34;11.40;99.90
51825;DHT22;37879;52.986;6.282;2022-11-02T00:38:00;11.30;99.90
51825;DHT22;37879;52.986;6.282;2022-11-02T00:40:25;11.30;99.90
51825;DHT22;37879;52.986;6.282;2022-11-02T00:42:51;11.20;99.90
51825;DHT22;37879;52.986;6.282;2022-11-02T00:45:17;11.20;99.90
51825;DHT22;37879;52.986;6.282;2022-11-02T00:47:42;11.20;99.90
51825;DHT22;37879;52.986;6.282;2022-11-02T00:50:08;11.20;99.90
51825;DHT22;37879;52.986;6.282;2022-11-02T00:52:34;11.10;99.90
51825;DHT22;37879;52.986;6.282;2022-11-02T00:55:00;11.10;99.90
51825;DHT22;37879;52.986;6.282;2022-11-02T00:57:25;11.10;99.90
51825;DHT22;37879;52.986;6.282;2022-11-02T00:59:51;11.10;99.90
51825;DHT22;37879;52.986;6.282;2022-11-02T01:02:17;11.00;99.90
51825;DHT22;37879;52.986;6.282;2022-11-02T01:04:42;11.00;99.90
51825;DHT22;37879;52.986;6.282;2022-11-02T01:07:08;11.00;99.90
51825;DHT22;37879;52.986;6.282;2022-11-02T01:09:34;11.00;99.90
51825;DHT22;37879;52.986;6.282;2022-11-02T01:12:00;10.90;99.90
51825;DHT22;37879;52.986;6.282;2022-11-02T01:14:25;10.90;99.90
51825;DHT22;37879;52.986;6.282;2022-11-02T01:16:51;10.90;99.90
51825;DHT22;37879;52.986;6.282;2022-11-02T01:19:17;10.80;99.90
51825;DHT22;37879;52.986;6.282;2022-11-02T01:21:42;10.80;99.90
51825;DHT22;37879;52.986;6.282;2022-11-02T01:24:10;10.80;99.90
51825;DHT22;37879;52.986;6.282;2022-11-02T01:26:36;10.70;99.90
51825;DHT22;37879;52.986;6.282;2022-11-02T01:29:02;10.70;99.90
51825;DHT22;37879;52.986;6.282;2022-11-02T01:31:27;10.80;99.90
51825;DHT22;37879;52.986;6.282;2022-11-02T01:33:53;10.60;99.90
51825;DHT22;37879;52.986;6.282;2022-11-02T01:36:19;10.80;99.90
51825;DHT22;37879;52.986;6.282;2022-11-02T01:38:48;10.60;99.90
51825;DHT22;37879;52.986;6.282;2022-11-02T01:41:14;10.70;99.90
51825;DHT22;37879;52.986;6.282;2022-11-02T01:43:42;10.70;99.90
51825;DHT22;37879;52.986;6.282;2022-11-02T01:53:50;10.80;99.90
51825;DHT22;37879;52.986;6.282;2022-11-02T01:56:18;10.80;99.90
51825;DHT22;37879;52.986;6.282;2022-11-02T01:58:50;10.80;99.90
51825;DHT22;37879;52.986;6.282;2022-11-02T02:01:18;10.90;99.90
51825;DHT22;37879;52.986;6.282;2022-11-02T02:03:45;10.90;99.90
51825;DHT22;37879;52.986;6.282;2022-11-02T02:06:13;11.00;99.90
51825;DHT22;37879;52.986;6.282;2022-11-02T02:08:48;10.90;99.90
51825;DHT22;37879;52.986;6.282;2022-11-02T02:11:27;10.90;99.90
51825;DHT22;37879;52.986;6.282;2022-11-02T02:14:19;10.90;99.90
51825;DHT22;37879;52.986;6.282;2022-11-02T02:28:03;11.00;99.90
51825;DHT22;37879;52.986;6.282;2022-11-02T02:30:36;11.00;99.90
51825;DHT22;37879;52.986;6.282;2022-11-02T02:33:17;11.10;99.90
51825;DHT22;37879;52.986;6.282;2022-11-02T02:35:52;11.00;99.90
51825;DHT22;37879;52.986;6.282;2022-11-02T02:38:43;11.00;99.90
51825;DHT22;37879;52.986;6.282;2022-11-02T02:43:55;11.10;99.90
51825;DHT22;37879;52.986;6.282;2022-11-02T02:46:52;11.00;99.90
51825;DHT22;37879;52.986;6.282;2022-11-02T02:49:23;11.00;99.90
51825;DHT22;37879;52.986;6.282;2022-11-02T02:51:50;11.00;99.90
51825;DHT22;37879;52.986;6.282;2022-11-02T02:54:20;11.00;99.90
51825;DHT22;37879;52.986;6.282;2022-11-02T02:56:52;11.00;99.90
51825;DHT22;37879;52.986;6.282;2022-11-02T02:59:28;11.20;99.90
51825;DHT22;37879;52.986;6.282;2022-11-02T03:01:56;11.00;99.90
51825;DHT22;37879;52.986;6.282;2022-11-02T03:04:23;10.90;99.90
51825;DHT22;37879;52.986;6.282;2022-11-02T03:06:52;10.90;99.90
51825;DHT22;37879;52.986;6.282;2022-11-02T03:09:42;10.80;99.90
51825;DHT22;37879;52.986;6.282;2022-11-02T03:15:21;10.80;99.90
51825;DHT22;37879;52.986;6.282;2022-11-02T03:20:52;10.70;99.90
51825;DHT22;37879;52.986;6.282;2022-11-02T03:31:37;10.60;99.90
51825;DHT22;37879;52.986;6.282;2022-11-02T03:37:09;10.60;99.90
51825;DHT22;37879;52.986;6.282;2022-11-02T03:39:52;10.60;99.90
51825;DHT22;37879;52.986;6.282;2022-11-02T03:42:23;10.60;99.90
51825;DHT22;37879;52.986;6.282;2022-11-02T03:44:54;10.80;99.90
51825;DHT22;37879;52.986;6.282;2022-11-02T03:47:22;10.60;99.90
51825;DHT22;37879;52.986;6.282;2022-11-02T03:49:49;10.60;99.90
51825;DHT22;37879;52.986;6.282;2022-11-02T03:52:20;10.60;99.90
51825;DHT22;37879;52.986;6.282;2022-11-02T03:55:07;10.60;99.90
51825;DHT22;37879;52.986;6.282;2022-11-02T03:57:44;10.60;99.90
51825;DHT22;37879;52.986;6.282;2022-11-02T04:00:16;10.70;99.90
51825;DHT22;37879;52.986;6.282;2022-11-02T04:02:49;10.60;99.90
51825;DHT22;37879;52.986;6.282;2022-11-02T04:05:15;10.60;99.90
51825;DHT22;37879;52.986;6.282;2022-11-02T04:07:44;10.60;99.90
51825;DHT22;37879;52.986;6.282;2022-11-02T04:10:29;10.50;99.90
51825;DHT22;37879;52.986;6.282;2022-11-02T04:12:55;10.50;99.90
51825;DHT22;37879;52.986;6.282;2022-11-02T04:15:39;10.60;99.90
51825;DHT22;37879;52.986;6.282;2022-11-02T04:18:05;10.60;99.90
51825;DHT22;37879;52.986;6.282;2022-11-02T04:20:50;10.60;99.90
51825;DHT22;37879;52.986;6.282;2022-11-02T04:23:16;10.60;99.90
51825;DHT22;37879;52.986;6.282;2022-11-02T04:26:01;10.60;99.90
51825;DHT22;37879;52.986;6.282;2022-11-02T04:28:26;10.60;99.90
51825;DHT22;37879;52.986;6.282;2022-11-02T04:30:52;10.60;99.90
51825;DHT22;37879;52.986;6.282;2022-11-02T04:33:18;10.60;99.90
51825;DHT22;37879;52.986;6.282;2022-11-02T04:36:04;10.60;99.90
51825;DHT22;37879;52.986;6.282;2022-11-02T04:38:30;10.60;99.90
51825;DHT22;37879;52.986;6.282;2022-11-02T04:41:06;10.60;99.90
51825;DHT22;37879;52.986;6.282;2022-11-02T04:43:50;10.60;99.90
51825;DHT22;37879;52.986;6.282;2022-11-02T04:46:16;10.50;99.90
51825;DHT22;37879;52.986;6.282;2022-11-02T04:48:41;10.50;99.90
51825;DHT22;37879;52.986;6.282;2022-11-02T04:51:07;10.50;99.90
51825;DHT22;37879;52.986;6.282;2022-11-02T04:53:33;10.50;99.90
51825;DHT22;37879;52.986;6.282;2022-11-02T04:55:59;10.50;99.90
51825;DHT22;37879;52.986;6.282;2022-11-02T04:58:26;10.50;99.90
51825;DHT22;37879;52.986;6.282;2022-11-02T05:00:51;10.50;99.90
51825;DHT22;37879;52.986;6.282;2022-11-02T05:03:17;10.50;99.90
51825;DHT22;37879;52.986;6.282;2022-11-02T05:05:43;10.50;99.90
51825;DHT22;37879;52.986;6.282;2022-11-02T05:08:08;10.60;99.90
51825;DHT22;37879;52.986;6.282;2022-11-02T05:10:34;10.50;99.90
51825;DHT22;37879;52.986;6.282;2022-11-02T05:13:00;10.50;99.90
51825;DHT22;37879;52.986;6.282;2022-11-02T05:15:26;10.50;99.90
51825;DHT22;37879;52.986;6.282;2022-11-02T05:17:52;10.50;99.90
51825;DHT22;37879;52.986;6.282;2022-11-02T05:20:17;10.50;99.90
51825;DHT22;37879;52.986;6.282;2022-11-02T05:22:43;10.40;99.90
51825;DHT22;37879;52.986;6.282;2022-11-02T05:25:10;10.50;99.90
51825;DHT22;37879;52.986;6.282;2022-11-02T05:27:36;10.50;99.90
51825;DHT22;37879;52.986;6.282;2022-11-02T05:30:04;10.50;99.90
51825;DHT22;37879;52.986;6.282;2022-11-02T05:32:30;10.50;99.90
51825;DHT22;37879;52.986;6.282;2022-11-02T05:34:56;10.50;99.90
51825;DHT22;37879;52.986;6.282;2022-11-02T05:37:22;10.50;99.90
51825;DHT22;37879;52.986;6.282;2022-11-02T05:39:48;10.50;99.90
51825;DHT22;37879;52.986;6.282;2022-11-02T05:42:13;10.50;99.90
51825;DHT22;37879;52.986;6.282;2022-11-02T05:44:39;10.50;99.90
51825;DHT22;37879;52.986;6.282;2022-11-02T05:47:05;10.40;99.90
51825;DHT22;37879;52.986;6.282;2022-11-02T05:49:30;10.40;99.90
51825;DHT22;37879;52.986;6.282;2022-11-02T05:51:56;10.40;99.90
51825;DHT22;37879;52.986;6.282;2022-11-02T05:54:22;10.40;99.90
51825;DHT22;37879;52.986;6.282;2022-11-02T05:56:48;10.40;99.90
51825;DHT22;37879;52.986;6.282;2022-11-02T05:59:14;10.40;99.90
51825;DHT22;37879;52.986;6.282;2022-11-02T06:01:39;10.40;99.90
51825;DHT22;37879;52.986;6.282;2022-11-02T06:04:05;10.40;99.90
51825;DHT22;37879;52.986;6.282;2022-11-02T06:06:31;10.40;99.90
51825;DHT22;37879;52.986;6.282;2022-11-02T06:08:57;10.50;99.90
51825;DHT22;37879;52.986;6.282;2022-11-02T06:11:22;10.50;99.90
51825;DHT22;37879;52.986;6.282;2022-11-02T06:13:49;10.50;99.90
51825;DHT22;37879;52.986;6.282;2022-11-02T06:16:16;10.50;99.90
51825;DHT22;37879;52.986;6.282;2022-11-02T06:18:42;10.60;99.90
51825;DHT22;37879;52.986;6.282;2022-11-02T06:21:08;10.60;99.90
51825;DHT22;37879;52.986;6.282;2022-11-02T06:23:35;10.60;99.90
51825;DHT22;37879;52.986;6.282;2022-11-02T06:26:01;10.50;99.90
51825;DHT22;37879;52.986;6.282;2022-11-02T06:28:28;10.50;99.90
51825;DHT22;37879;52.986;6.282;2022-11-02T06:30:54;10.50;99.90
51825;DHT22;37879;52.986;6.282;2022-11-02T06:33:20;10.50;99.90
51825;DHT22;37879;52.986;6.282;2022-11-02T06:35:47;10.50;99.90
51825;DHT22;37879;52.986;6.282;2022-11-02T06:38:13;10.50;99.90
51825;DHT22;37879;52.986;6.282;2022-11-02T06:40:39;10.50;99.90
51825;DHT22;37879;52.986;6.282;2022-11-02T06:43:05;10.50;99.90
51825;DHT22;37879;52.986;6.282;2022-11-02T06:45:31;10.50;99.90
51825;DHT22;37879;52.986;6.282;2022-11-02T06:47:57;10.50;99.90
51825;DHT22;37879;52.986;6.282;2022-11-02T06:50:23;10.50;99.90
51825;DHT22;37879;52.986;6.282;2022-11-02T06:52:50;10.50;99.90
51825;DHT22;37879;52.986;6.282;2022-11-02T06:55:16;10.50;99.90
51825;DHT22;37879;52.986;6.282;2022-11-02T06:57:43;10.50;99.90
51825;DHT22;37879;52.986;6.282;2022-11-02T07:00:14;10.50;99.90
51825;DHT22;37879;52.986;6.282;2022-11-02T07:02:43;10.60;99.90
51825;DHT22;37879;52.986;6.282;2022-11-02T07:05:09;10.60;99.90
51825;DHT22;37879;52.986;6.282;2022-11-02T07:07:35;10.60;99.90
51825;DHT22;37879;52.986;6.282;2022-11-02T07:10:01;10.60;99.90
51825;DHT22;37879;52.986;6.282;2022-11-02T07:12:26;10.60;99.90
51825;DHT22;37879;52.986;6.282;2022-11-02T07:14:52;10.70;99.90
51825;DHT22;37879;52.986;6.282;2022-11-02T07:17:18;10.70;99.90
51825;DHT22;37879;52.986;6.282;2022-11-02T07:19:43;10.70;99.90
51825;DHT22;37879;52.986;6.282;2022-11-02T07:22:10;10.70;99.90
51825;DHT22;37879;52.986;6.282;2022-11-02T07:24:36;10.70;99.90
51825;DHT22;37879;52.986;6.282;2022-11-02T07:27:01;10.70;99.90
51825;DHT22;37879;52.986;6.282;2022-11-02T07:29:27;10.70;99.90
51825;DHT22;37879;52.986;6.282;2022-11-02T07:31:53;10.70;99.90
51825;DHT22;37879;52.986;6.282;2022-11-02T07:34:20;10.70;99.90
51825;DHT22;37879;52.986;6.282;2022-11-02T07:36:45;10.70;99.90
51825;DHT22;37879;52.986;6.282;2022-11-02T07:39:11;10.80;99.90
51825;DHT22;37879;52.986;6.282;2022-11-02T07:41:37;10.80;99.90
51825;DHT22;37879;52.986;6.282;2022-11-02T07:44:02;10.80;99.90
51825;DHT22;37879;52.986;6.282;2022-11-02T07:46:28;10.70;99.90
51825;DHT22;37879;52.986;6.282;2022-11-02T07:48:54;10.70;99.90
51825;DHT22;37879;52.986;6.282;2022-11-02T07:51:20;10.70;99.90
51825;DHT22;37879;52.986;6.282;2022-11-02T07:53:45;10.70;99.90
51825;DHT22;37879;52.986;6.282;2022-11-02T07:56:11;10.70;99.90
51825;DHT22;37879;52.986;6.282;2022-11-02T07:58:37;10.70;99.90
51825;DHT22;37879;52.986;6.282;2022-11-02T08:01:02;10.80;99.90
51825;DHT22;37879;52.986;6.282;2022-11-02T08:03:28;10.80;99.90
51825;DHT22;37879;52.986;6.282;2022-11-02T08:05:54;10.90;99.90
51825;DHT22;37879;52.986;6.282;2022-11-02T08:08:22;11.00;99.90
51825;DHT22;37879;52.986;6.282;2022-11-02T08:10:49;11.10;99.90
51825;DHT22;37879;52.986;6.282;2022-11-02T08:13:21;11.20;99.90
51825;DHT22;37879;52.986;6.282;2022-11-02T08:15:51;11.20;99.90
51825;DHT22;37879;52.986;6.282;2022-11-02T08:18:19;11.30;99.90
51825;DHT22;37879;52.986;6.282;2022-11-02T08:20:45;11.30;99.90
51825;DHT22;37879;52.986;6.282;2022-11-02T08:23:12;11.40;99.90
51825;DHT22;37879;52.986;6.282;2022-11-02T08:25:39;11.30;99.90
51825;DHT22;37879;52.986;6.282;2022-11-02T08:28:06;11.30;99.90
51825;DHT22;37879;52.986;6.282;2022-11-02T08:30:32;11.40;99.90
51825;DHT22;37879;52.986;6.282;2022-11-02T08:33:12;11.40;99.90
51825;DHT22;37879;52.986;6.282;2022-11-02T08:35:40;11.40;99.90
51825;DHT22;37879;52.986;6.282;2022-11-02T08:38:06;11.40;99.90
51825;DHT22;37879;52.986;6.282;2022-11-02T08:40:33;11.40;99.90
51825;DHT22;37879;52.986;6.282;2022-11-02T08:43:01;11.50;99.90
51825;DHT22;37879;52.986;6.282;2022-11-02T08:45:29;11.50;99.90
51825;DHT22;37879;52.986;6.282;2022-11-02T08:47:54;11.50;99.90
51825;DHT22;37879;52.986;6.282;2022-11-02T08:50:21;11.60;99.90
51825;DHT22;37879;52.986;6.282;2022-11-02T08:52:47;11.60;99.90
51825;DHT22;37879;52.986;6.282;2022-11-02T08:55:13;11.60;99.90
51825;DHT22;37879;52.986;6.282;2022-11-02T09:00:11;11.60;99.90
51825;DHT22;37879;52.986;6.282;2022-11-02T09:02:37;11.60;99.90
51825;DHT22;37879;52.986;6.282;2022-11-02T09:05:02;11.60;99.90
51825;DHT22;37879;52.986;6.282;2022-11-02T09:07:28;11.60;99.90
51825;DHT22;37879;52.986;6.282;2022-11-02T09:09:54;11.60;99.90
51825;DHT22;37879;52.986;6.282;2022-11-02T09:12:20;11.60;99.90
51825;DHT22;37879;52.986;6.282;2022-11-02T09:14:46;11.70;99.90
51825;DHT22;37879;52.986;6.282;2022-11-02T09:17:11;12.00;99.90
51825;DHT22;37879;52.986;6.282;2022-11-02T09:19:37;12.50;99.90
51825;DHT22;37879;52.986;6.282;2022-11-02T09:22:03;12.60;99.90
51825;DHT22;37879;52.986;6.282;2022-11-02T09:24:29;12.50;99.90
51825;DHT22;37879;52.986;6.282;2022-11-02T09:26:54;12.30;99.90
51825;DHT22;37879;52.986;6.282;2022-11-02T09:29:20;12.30;99.90
51825;DHT22;37879;52.986;6.282;2022-11-02T09:31:46;12.10;99.90
51825;DHT22;37879;52.986;6.282;2022-11-02T09:34:14;12.10;99.90
51825;DHT22;37879;52.986;6.282;2022-11-02T09:36:40;12.00;99.90
51825;DHT22;37879;52.986;6.282;2022-11-02T09:39:06;12.00;99.90
51825;DHT22;37879;52.986;6.282;2022-11-02T09:41:42;11.90;99.90
51825;DHT22;37879;52.986;6.282;2022-11-02T09:44:41;12.00;99.90
51825;DHT22;37879;52.986;6.282;2022-11-02T09:47:11;12.00;99.90
51825;DHT22;37879;52.986;6.282;2022-11-02T09:49:38;12.10;99.90
51825;DHT22;37879;52.986;6.282;2022-11-02T09:52:05;12.10;99.90
51825;DHT22;37879;52.986;6.282;2022-11-02T09:54:43;12.10;99.90
51825;DHT22;37879;52.986;6.282;2022-11-02T09:57:31;12.10;99.90
51825;DHT22;37879;52.986;6.282;2022-11-02T09:59:57;12.20;99.90
51825;DHT22;37879;52.986;6.282;2022-11-02T10:03:01;12.20;99.90
51825;DHT22;37879;52.986;6.282;2022-11-02T10:13:43;12.40;99.90
51825;DHT22;37879;52.986;6.282;2022-11-02T10:16:37;12.30;99.90
51825;DHT22;37879;52.986;6.282;2022-11-02T10:19:11;12.40;99.90
51825;DHT22;37879;52.986;6.282;2022-11-02T10:21:38;12.40;99.90
51825;DHT22;37879;52.986;6.282;2022-11-02T10:27:00;12.50;99.90
51825;DHT22;37879;52.986;6.282;2022-11-02T10:29:40;12.50;99.90
51825;DHT22;37879;52.986;6.282;2022-11-02T10:32:11;12.60;99.90
51825;DHT22;37879;52.986;6.282;2022-11-02T10:34:38;12.70;99.90
51825;DHT22;37879;52.986;6.282;2022-11-02T10:42:36;12.90;99.90
51825;DHT22;37879;52.986;6.282;2022-11-02T10:50:29;13.10;99.90
51825;DHT22;37879;52.986;6.282;2022-11-02T10:53:02;13.20;99.90
51825;DHT22;37879;52.986;6.282;2022-11-02T10:55:39;13.30;99.90
51825;DHT22;37879;52.986;6.282;2022-11-02T10:58:11;13.40;99.90
51825;DHT22;37879;52.986;6.282;2022-11-02T11:00:40;13.60;99.90
51825;DHT22;37879;52.986;6.282;2022-11-02T11:03:10;13.70;99.90
51825;DHT22;37879;52.986;6.282;2022-11-02T11:06:00;13.80;99.90
51825;DHT22;37879;52.986;6.282;2022-11-02T11:08:38;13.80;99.90
51825;DHT22;37879;52.986;6.282;2022-11-02T11:11:30;13.70;99.90
51825;DHT22;37879;52.986;6.282;2022-11-02T11:14:15;13.60;99.90
51825;DHT22;37879;52.986;6.282;2022-11-02T11:16:44;13.60;99.90
51825;DHT22;37879;52.986;6.282;2022-11-02T11:19:38;13.50;99.90
51825;DHT22;37879;52.986;6.282;2022-11-02T11:24:49;13.30;99.90
51825;DHT22;37879;52.986;6.282;2022-11-02T11:27:18;13.20;99.90
51825;DHT22;37879;52.986;6.282;2022-11-02T11:29:57;13.20;99.90
51825;DHT22;37879;52.986;6.282;2022-11-02T11:32:29;13.10;99.90
51825;DHT22;37879;52.986;6.282;2022-11-02T11:35:01;13.10;99.90
51825;DHT22;37879;52.986;6.282;2022-11-02T11:37:28;13.10;99.90
51825;DHT22;37879;52.986;6.282;2022-11-02T11:40:05;13.10;99.90
51825;DHT22;37879;52.986;6.282;2022-11-02T11:42:35;13.10;99.90
51825;DHT22;37879;52.986;6.282;2022-11-02T11:45:21;13.10;99.90
51825;DHT22;37879;52.986;6.282;2022-11-02T11:50:32;13.30;99.90
51825;DHT22;37879;52.986;6.282;2022-11-02T11:53:24;13.40;99.90
51825;DHT22;37879;52.986;6.282;2022-11-02T11:55:55;13.40;99.90
51825;DHT22;37879;52.986;6.282;2022-11-02T11:58:32;13.50;99.90
51825;DHT22;37879;52.986;6.282;2022-11-02T12:03:55;13.50;99.90
51825;DHT22;37879;52.986;6.282;2022-11-02T12:12:15;13.50;99.90
51825;DHT22;37879;52.986;6.282;2022-11-02T12:14:51;13.50;99.90
51825;DHT22;37879;52.986;6.282;2022-11-02T12:20:23;13.50;99.90
51825;DHT22;37879;52.986;6.282;2022-11-02T12:32:28;13.40;99.90
51825;DHT22;37879;52.986;6.282;2022-11-02T12:41:22;13.70;99.90
51825;DHT22;37879;52.986;6.282;2022-11-02T12:48:40;13.60;99.90
51825;DHT22;37879;52.986;6.282;2022-11-02T12:54:14;13.60;99.90
51825;DHT22;37879;52.986;6.282;2022-11-02T12:56:50;13.60;99.90
51825;DHT22;37879;52.986;6.282;2022-11-02T12:59:23;13.70;99.90
51825;DHT22;37879;52.986;6.282;2022-11-02T13:02:05;13.70;99.90
51825;DHT22;37879;52.986;6.282;2022-11-02T13:04:43;13.70;99.90
51825;DHT22;37879;52.986;6.282;2022-11-02T13:07:13;13.70;99.90
51825;DHT22;37879;52.986;6.282;2022-11-02T13:12:26;13.70;99.90
51825;DHT22;37879;52.986;6.282;2022-11-02T13:14:57;13.80;99.90
51825;DHT22;37879;52.986;6.282;2022-11-02T13:17:39;13.80;99.90
51825;DHT22;37879;52.986;6.282;2022-11-02T13:22:43;13.90;99.90
51825;DHT22;37879;52.986;6.282;2022-11-02T13:25:19;13.80;99.90
51825;DHT22;37879;52.986;6.282;2022-11-02T13:27:52;13.80;99.90
51825;DHT22;37879;52.986;6.282;2022-11-02T13:30:19;13.80;99.90
51825;DHT22;37879;52.986;6.282;2022-11-02T13:35:37;13.80;99.90
51825;DHT22;37879;52.986;6.282;2022-11-02T13:51:34;14.00;99.90
51825;DHT22;37879;52.986;6.282;2022-11-02T13:54:20;14.10;99.90
51825;DHT22;37879;52.986;6.282;2022-11-02T13:56:52;14.30;99.90
51825;DHT22;37879;52.986;6.282;2022-11-02T14:01:47;14.40;99.90
51825;DHT22;37879;52.986;6.282;2022-11-02T14:04:15;14.40;99.90
51825;DHT22;37879;52.986;6.282;2022-11-02T14:11:50;14.40;99.90
51825;DHT22;37879;52.986;6.282;2022-11-02T14:14:33;14.30;99.90
51825;DHT22;37879;52.986;6.282;2022-11-02T14:17:17;14.30;99.90
51825;DHT22;37879;52.986;6.282;2022-11-02T14:22:10;14.20;99.90
51825;DHT22;37879;52.986;6.282;2022-11-02T14:32:16;13.90;99.90
51825;DHT22;37879;52.986;6.282;2022-11-02T14:49:01;13.30;99.90
51825;DHT22;37879;52.986;6.282;2022-11-02T14:51:32;13.20;99.90
51825;DHT22;37879;52.986;6.282;2022-11-02T14:54:15;13.20;99.90
51825;DHT22;37879;52.986;6.282;2022-11-02T14:59:32;13.10;99.90
51825;DHT22;37879;52.986;6.282;2022-11-02T15:02:30;13.00;99.90
51825;DHT22;37879;52.986;6.282;2022-11-02T15:04:59;13.00;99.90
51825;DHT22;37879;52.986;6.282;2022-11-02T15:10:33;13.00;99.90
51825;DHT22;37879;52.986;6.282;2022-11-02T15:16:14;12.90;99.90
51825;DHT22;37879;52.986;6.282;2022-11-02T15:18:40;12.90;99.90
51825;DHT22;37879;52.986;6.282;2022-11-02T15:26:14;12.70;99.90
51825;DHT22;37879;52.986;6.282;2022-11-02T15:28:43;12.60;99.90
51825;DHT22;37879;52.986;6.282;2022-11-02T15:31:20;12.60;99.90
51825;DHT22;37879;52.986;6.282;2022-11-02T15:33:48;12.60;99.90
51825;DHT22;37879;52.986;6.282;2022-11-02T15:36:19;12.50;99.90
51825;DHT22;37879;52.986;6.282;2022-11-02T15:38:49;12.50;99.90
51825;DHT22;37879;52.986;6.282;2022-11-02T15:44:23;12.40;99.90
51825;DHT22;37879;52.986;6.282;2022-11-02T15:57:56;12.20;99.90
51825;DHT22;37879;52.986;6.282;2022-11-02T16:00:25;12.10;99.90
51825;DHT22;37879;52.986;6.282;2022-11-02T16:03:05;12.00;99.90
51825;DHT22;37879;52.986;6.282;2022-11-02T16:05:45;11.90;99.90
51825;DHT22;37879;52.986;6.282;2022-11-02T16:08:23;11.80;99.90
51825;DHT22;37879;52.986;6.282;2022-11-02T16:10:48;11.80;99.90
51825;DHT22;37879;52.986;6.282;2022-11-02T16:13:19;11.70;99.90
51825;DHT22;37879;52.986;6.282;2022-11-02T16:15:46;11.60;99.90
51825;DHT22;37879;52.986;6.282;2022-11-02T16:18:34;11.50;99.90
51825;DHT22;37879;52.986;6.282;2022-11-02T16:21:02;11.40;99.90
51825;DHT22;37879;52.986;6.282;2022-11-02T16:23:35;11.40;99.90
51825;DHT22;37879;52.986;6.282;2022-11-02T16:26:03;11.30;99.90
51825;DHT22;37879;52.986;6.282;2022-11-02T16:28:37;11.30;99.90
51825;DHT22;37879;52.986;6.282;2022-11-02T16:31:14;11.20;99.90
51825;DHT22;37879;52.986;6.282;2022-11-02T16:33:51;11.20;99.90
51825;DHT22;37879;52.986;6.282;2022-11-02T16:36:22;11.10;99.90
51825;DHT22;37879;52.986;6.282;2022-11-02T16:41:32;10.90;99.90
51825;DHT22;37879;52.986;6.282;2022-11-02T16:44:10;10.90;99.90
51825;DHT22;37879;52.986;6.282;2022-11-02T16:52:20;10.90;99.90
51825;DHT22;37879;52.986;6.282;2022-11-02T16:54:46;10.90;99.90
51825;DHT22;37879;52.986;6.282;2022-11-02T16:57:18;10.90;99.90
51825;DHT22;37879;52.986;6.282;2022-11-02T17:00:03;10.90;99.90
51825;DHT22;37879;52.986;6.282;2022-11-02T17:02:35;10.80;99.90
51825;DHT22;37879;52.986;6.282;2022-11-02T17:05:03;10.80;99.90
51825;DHT22;37879;52.986;6.282;2022-11-02T17:07:37;10.80;99.90
51825;DHT22;37879;52.986;6.282;2022-11-02T17:10:05;10.80;99.90
51825;DHT22;37879;52.986;6.282;2022-11-02T17:12:41;10.80;99.90
51825;DHT22;37879;52.986;6.282;2022-11-02T17:17:41;10.70;99.90
51825;DHT22;37879;52.986;6.282;2022-11-02T17:25:29;10.70;99.90
51825;DHT22;37879;52.986;6.282;2022-11-02T17:27:57;10.70;99.90
51825;DHT22;37879;52.986;6.282;2022-11-02T17:33:21;10.60;99.90
51825;DHT22;37879;52.986;6.282;2022-11-02T17:35:49;10.60;99.90
51825;DHT22;37879;52.986;6.282;2022-11-02T17:38:15;10.60;99.90
51825;DHT22;37879;52.986;6.282;2022-11-02T17:40:41;10.50;99.90
51825;DHT22;37879;52.986;6.282;2022-11-02T17:43:07;10.50;99.90
51825;DHT22;37879;52.986;6.282;2022-11-02T17:45:34;10.50;99.90
51825;DHT22;37879;52.986;6.282;2022-11-02T17:48:05;10.40;99.90
51825;DHT22;37879;52.986;6.282;2022-11-02T17:50:32;10.40;99.90
51825;DHT22;37879;52.986;6.282;2022-11-02T17:53:00;10.40;99.90
51825;DHT22;37879;52.986;6.282;2022-11-02T17:55:31;10.30;99.90
51825;DHT22;37879;52.986;6.282;2022-11-02T17:57:57;10.30;99.90
51825;DHT22;37879;52.986;6.282;2022-11-02T18:00:24;10.20;99.90
51825;DHT22;37879;52.986;6.282;2022-11-02T18:02:51;10.20;99.90
51825;DHT22;37879;52.986;6.282;2022-11-02T18:07:53;10.10;99.90
51825;DHT22;37879;52.986;6.282;2022-11-02T18:10:21;10.10;99.90
51825;DHT22;37879;52.986;6.282;2022-11-02T18:12:47;10.10;99.90
51825;DHT22;37879;52.986;6.282;2022-11-02T18:15:16;10.00;99.90
51825;DHT22;37879;52.986;6.282;2022-11-02T18:17:42;10.00;99.90
51825;DHT22;37879;52.986;6.282;2022-11-02T18:20:08;10.00;99.90
51825;DHT22;37879;52.986;6.282;2022-11-02T18:22:35;10.00;99.90
51825;DHT22;37879;52.986;6.282;2022-11-02T18:25:01;10.00;99.90
51825;DHT22;37879;52.986;6.282;2022-11-02T18:27:27;10.00;99.90
51825;DHT22;37879;52.986;6.282;2022-11-02T18:29:52;10.00;99.90
51825;DHT22;37879;52.986;6.282;2022-11-02T18:32:18;10.10;99.90
51825;DHT22;37879;52.986;6.282;2022-11-02T18:34:44;10.10;99.90
51825;DHT22;37879;52.986;6.282;2022-11-02T18:37:10;10.10;99.90
51825;DHT22;37879;52.986;6.282;2022-11-02T18:39:35;10.10;99.90
51825;DHT22;37879;52.986;6.282;2022-11-02T18:42:01;10.10;99.90
51825;DHT22;37879;52.986;6.282;2022-11-02T18:44:28;10.10;99.90
51825;DHT22;37879;52.986;6.282;2022-11-02T18:46:54;10.10;99.90
51825;DHT22;37879;52.986;6.282;2022-11-02T18:49:22;10.20;99.90
51825;DHT22;37879;52.986;6.282;2022-11-02T18:51:47;10.20;99.90
51825;DHT22;37879;52.986;6.282;2022-11-02T18:54:13;10.20;99.90
51825;DHT22;37879;52.986;6.282;2022-11-02T18:56:39;10.20;99.90
51825;DHT22;37879;52.986;6.282;2022-11-02T18:59:05;10.20;99.90
51825;DHT22;37879;52.986;6.282;2022-11-02T19:01:31;10.20;99.90
51825;DHT22;37879;52.986;6.282;2022-11-02T19:03:58;10.20;99.90
51825;DHT22;37879;52.986;6.282;2022-11-02T19:06:25;10.30;99.90
51825;DHT22;37879;52.986;6.282;2022-11-02T19:09:11;10.40;99.90
51825;DHT22;37879;52.986;6.282;2022-11-02T19:11:49;10.30;99.90
51825;DHT22;37879;52.986;6.282;2022-11-02T19:14:18;10.30;99.90